Pikes Falls, Vermont
Current Conditions -  °F | °C
As of 5:54 PM on Monday 24 Nov 2014 (Local Time) from KVSF Reporting Station
Clear Clear  
Wind Chill: 52°   Ceiling: Unl
Heat Index: 52°   Visibility: 7mi
Dew Point: 52°   Wind: 0mph
Humidity: 100%   Direction: NA
Pressure: 29.53"   Gusts: NA
Location:  43.1008°N, 72.8076°W
Report Text: KVSF 242254Z AUTO 00000KT 7SM CLR 11/11 A2953 RMK AO2 SLP002 T01110111
Loading
Personal Weather Stations






























Interactive Weather Map New forecast layout! Learn more

10-Day Weather Forecast

Advertisements
Track Severe Weather on mobile